Terminal Aerodrome Forecast
Issued by NWS

Home | Current Version | Previous Version | Text Only | Print | Product List | Glossary On
Versions: 1 2 3 4 5 6 7 8 9 10 11 12 13 14 15 16 17 18 19 20 21 22 23 24 25 26 27
000
FTUS45 KABQ 222300
TAFROW
TAF
KROW 222329Z 2300/2324 16007KT P6SM FEW100
     FM230900 20004KT P6SM FEW025
      TEMPO 2309/2313 2SM BR BKN015
     FM231400 36005KT P6SM SKC
     FM232100 17008KT P6SM SKC=

USA.gov is the U.S. government's official web portal to all federal, state and local government web resources and services.